createdAt,value
2023-04-23T00:01:41.915Z,17.60
2023-04-23T00:04:09.229Z,17.20
2023-04-23T00:06:36.150Z,16.17
2023-04-23T00:09:03.355Z,19.27
2023-04-23T00:11:29.923Z,17.87
2023-04-23T00:13:56.492Z,17.00
2023-04-23T00:16:23.863Z,17.20
2023-04-23T00:18:50.623Z,18.57
2023-04-23T00:21:16.839Z,16.40
2023-04-23T00:23:43.216Z,16.97
2023-04-23T00:26:09.664Z,17.33
2023-04-23T00:28:36.197Z,16.83
2023-04-23T00:31:02.466Z,18.97
2023-04-23T00:33:28.665Z,18.77
2023-04-23T00:35:54.894Z,16.27
2023-04-23T00:38:21.046Z,16.80
2023-04-23T00:40:47.388Z,17.17
2023-04-23T00:43:14.853Z,15.80
2023-04-23T00:45:41.273Z,15.47
2023-04-23T00:48:08.290Z,17.53
2023-04-23T00:50:34.575Z,18.47
2023-04-23T00:53:01.283Z,19.00
2023-04-23T00:55:27.691Z,17.80
2023-04-23T00:57:55.408Z,17.37
2023-04-23T01:00:22.012Z,16.97
2023-04-23T01:02:50.072Z,17.43
2023-04-23T01:05:17.590Z,18.43
2023-04-23T01:07:45.003Z,16.17
2023-04-23T01:10:12.414Z,15.33
2023-04-23T01:12:38.981Z,17.27
2023-04-23T01:15:07.983Z,16.57
2023-04-23T01:17:34.617Z,17.13
2023-04-23T01:20:01.112Z,16.70
2023-04-23T01:22:27.366Z,17.70
2023-04-23T01:24:54.320Z,17.93
2023-04-23T01:27:21.764Z,18.03
2023-04-23T01:29:48.918Z,16.40
2023-04-23T01:32:16.093Z,18.70
2023-04-23T01:34:46.777Z,17.33
2023-04-23T01:37:14.820Z,18.50
2023-04-23T01:39:41.220Z,18.80
2023-04-23T01:42:07.722Z,16.90
2023-04-23T01:44:34.138Z,18.83
2023-04-23T01:47:00.528Z,14.23
2023-04-23T01:49:27.093Z,25.67
2023-04-23T01:51:53.347Z,17.93
2023-04-23T01:54:19.489Z,18.53
2023-04-23T01:56:46.212Z,17.50
2023-04-23T01:59:12.668Z,17.57
2023-04-23T02:01:46.864Z,15.73
2023-04-23T02:04:15.170Z,19.57
2023-04-23T02:06:45.219Z,20.03
2023-04-23T02:09:12.312Z,19.97
2023-04-23T02:11:38.751Z,19.40
2023-04-23T02:14:06.544Z,20.90
2023-04-23T02:16:33.942Z,17.60
2023-04-23T02:19:01.126Z,21.73
2023-04-23T02:21:27.710Z,20.10
2023-04-23T02:23:54.214Z,20.47
2023-04-23T02:26:22.078Z,19.53
2023-04-23T02:28:48.389Z,17.97
2023-04-23T02:31:16.032Z,18.17
2023-04-23T02:33:42.183Z,17.73
2023-04-23T02:36:11.799Z,17.43
2023-04-23T02:38:41.719Z,19.87
2023-04-23T02:41:08.210Z,18.63
2023-04-23T02:43:34.515Z,15.93
2023-04-23T02:46:07.196Z,18.33
2023-04-23T02:48:40.409Z,19.47
2023-04-23T02:51:11.743Z,19.67
2023-04-23T02:53:38.213Z,16.93
2023-04-23T02:56:04.961Z,19.20
2023-04-23T02:58:31.678Z,17.47
2023-04-23T03:01:01.701Z,20.20
2023-04-23T03:03:33.293Z,14.63
2023-04-23T03:06:03.610Z,17.13
2023-04-23T03:08:29.790Z,18.60
2023-04-23T03:10:56.286Z,17.60
2023-04-23T03:13:22.636Z,18.63
2023-04-23T03:15:50.792Z,18.33
2023-04-23T03:18:17.455Z,18.67
2023-04-23T03:20:47.286Z,13.30
2023-04-23T03:23:13.466Z,15.07
2023-04-23T03:25:39.878Z,15.73
2023-04-23T03:28:06.351Z,17.80
2023-04-23T03:30:33.479Z,15.27
2023-04-23T03:33:01.703Z,17.77
2023-04-23T03:35:28.787Z,15.63
2023-04-23T03:37:57.232Z,19.23
2023-04-23T03:40:24.468Z,15.00
2023-04-23T03:42:53.933Z,17.60
2023-04-23T03:45:27.687Z,15.20
2023-04-23T03:47:54.368Z,14.17
2023-04-23T03:50:20.807Z,19.30
2023-04-23T03:52:58.529Z,16.67
2023-04-23T03:55:44.639Z,16.97
2023-04-23T03:58:11.109Z,16.97
2023-04-23T04:00:44.417Z,17.03
2023-04-23T04:03:11.001Z,18.03
2023-04-23T04:05:37.231Z,19.50
2023-04-23T04:08:04.406Z,13.80
2023-04-23T04:10:30.707Z,16.10
2023-04-23T04:12:56.983Z,15.07
2023-04-23T04:15:23.228Z,15.97
2023-04-23T04:17:49.416Z,11.47
2023-04-23T04:20:15.652Z,14.27
2023-04-23T04:22:41.924Z,17.13
2023-04-23T04:25:08.414Z,15.57
2023-04-23T04:27:35.244Z,17.47
2023-04-23T04:30:01.826Z,15.63
2023-04-23T04:32:28.323Z,16.63
2023-04-23T04:34:54.748Z,18.77
2023-04-23T04:37:20.895Z,18.20
2023-04-23T04:39:47.311Z,18.80
2023-04-23T04:42:13.586Z,20.60
2023-04-23T04:44:40.130Z,13.07
2023-04-23T04:47:07.544Z,14.83
2023-04-23T04:49:33.982Z,19.83
2023-04-23T04:52:00.448Z,16.83
2023-04-23T04:54:26.610Z,17.80
2023-04-23T04:56:53.074Z,19.00
2023-04-23T04:59:19.340Z,17.73
2023-04-23T05:01:46.032Z,17.93
2023-04-23T05:04:12.341Z,18.83
2023-04-23T05:06:38.694Z,19.90
2023-04-23T05:09:04.901Z,20.73
2023-04-23T05:11:31.740Z,20.03
2023-04-23T05:13:57.927Z,20.77
2023-04-23T05:16:24.197Z,18.27
2023-04-23T05:18:51.305Z,19.57
2023-04-23T05:21:18.661Z,20.70
2023-04-23T05:23:44.872Z,18.77
2023-04-23T05:26:11.435Z,22.83
2023-04-23T05:28:37.935Z,23.03
2023-04-23T05:31:04.382Z,18.37
2023-04-23T05:33:36.436Z,21.30
2023-04-23T05:36:13.085Z,27.87
2023-04-23T05:38:39.488Z,27.27
2023-04-23T05:41:05.695Z,27.67
2023-04-23T05:43:31.957Z,25.47
2023-04-23T05:45:58.337Z,22.77
2023-04-23T05:48:24.715Z,20.87
2023-04-23T05:50:51.111Z,19.83
2023-04-23T05:53:17.306Z,16.90
2023-04-23T05:55:43.461Z,15.23
2023-04-23T05:58:09.861Z,16.77
2023-04-23T06:00:36.790Z,15.93
2023-04-23T06:03:03.155Z,16.80
2023-04-23T06:05:29.480Z,14.87
2023-04-23T06:07:55.888Z,14.43
2023-04-23T06:10:22.065Z,15.37
2023-04-23T06:12:48.542Z,13.00
2023-04-23T06:15:14.894Z,12.87
2023-04-23T06:17:41.105Z,12.10
2023-04-23T06:20:10.210Z,12.17
2023-04-23T06:22:36.369Z,12.17
2023-04-23T06:25:03.173Z,13.37
2023-04-23T06:27:29.335Z,12.23
2023-04-23T06:30:01.192Z,11.53
2023-04-23T06:32:28.514Z,11.83
2023-04-23T06:35:01.635Z,10.47
2023-04-23T06:37:30.866Z,10.10
2023-04-23T06:39:59.176Z,10.43
2023-04-23T06:42:25.540Z,10.53
2023-04-23T06:45:11.087Z,9.63
2023-04-23T06:47:37.545Z,10.50
2023-04-23T06:50:05.189Z,11.93
2023-04-23T06:52:31.360Z,9.03
2023-04-23T06:54:57.629Z,10.13
2023-04-23T06:57:23.822Z,9.87
2023-04-23T06:59:50.889Z,10.20
2023-04-23T07:02:20.336Z,9.43
2023-04-23T07:04:47.118Z,9.23
2023-04-23T07:07:13.444Z,9.37
2023-04-23T07:09:39.651Z,8.63
2023-04-23T07:12:05.910Z,9.03
2023-04-23T07:14:32.452Z,8.40
2023-04-23T07:16:59.034Z,8.30
2023-04-23T07:19:26.674Z,8.77
2023-04-23T07:21:52.871Z,9.13
2023-04-23T07:24:19.287Z,8.27
2023-04-23T07:26:45.554Z,8.53
2023-04-23T07:29:13.611Z,8.37
2023-04-23T07:31:43.143Z,8.37
2023-04-23T07:34:09.759Z,7.43
2023-04-23T07:36:36.716Z,7.47
2023-04-23T07:39:04.692Z,7.20
2023-04-23T07:41:32.176Z,7.43
2023-04-23T07:43:58.620Z,7.60
2023-04-23T07:46:25.096Z,7.40
2023-04-23T07:48:52.266Z,7.00
2023-04-23T07:51:18.490Z,6.10
2023-04-23T07:53:46.187Z,6.27
2023-04-23T07:56:12.719Z,6.93
2023-04-23T07:58:38.857Z,7.40
2023-04-23T08:01:05.018Z,7.00
2023-04-23T08:03:31.295Z,6.47
2023-04-23T08:05:58.485Z,5.13
2023-04-23T08:08:24.820Z,8.00
2023-04-23T08:10:51.001Z,6.20
2023-04-23T08:13:17.565Z,10.03
2023-04-23T08:15:43.745Z,5.43
2023-04-23T08:18:10.788Z,5.70
2023-04-23T08:20:37.304Z,6.33
2023-04-23T08:23:03.936Z,5.03
2023-04-23T08:25:31.953Z,5.10
2023-04-23T08:27:58.768Z,5.83
2023-04-23T08:30:24.982Z,6.33
2023-04-23T08:32:55.606Z,4.77
2023-04-23T08:35:22.849Z,5.00
2023-04-23T08:37:49.515Z,4.63
2023-04-23T08:40:16.368Z,4.30
2023-04-23T08:43:02.102Z,4.40
2023-04-23T08:45:30.415Z,4.77
2023-04-23T08:48:02.017Z,4.20
2023-04-23T08:50:33.768Z,3.97
2023-04-23T08:53:04.041Z,4.00
2023-04-23T08:55:33.084Z,4.23
2023-04-23T08:58:00.588Z,3.77
2023-04-23T09:00:26.801Z,3.50
2023-04-23T09:02:53.725Z,4.17
2023-04-23T09:05:20.076Z,5.10
2023-04-23T09:07:46.427Z,4.43
2023-04-23T09:10:16.012Z,3.77
2023-04-23T09:12:44.505Z,8.10
2023-04-23T09:15:12.283Z,9.13
2023-04-23T09:17:44.454Z,3.40
2023-04-23T09:20:12.783Z,3.53
2023-04-23T09:22:51.947Z,3.40
2023-04-23T09:25:21.031Z,3.30
2023-04-23T09:27:50.031Z,5.73
2023-04-23T09:30:17.359Z,5.77
2023-04-23T09:32:45.963Z,3.80
2023-04-23T09:35:20.627Z,3.67
2023-04-23T09:37:50.108Z,3.73
2023-04-23T09:40:20.321Z,3.50
2023-04-23T09:42:53.624Z,4.20
2023-04-23T09:45:20.431Z,3.37
2023-04-23T09:47:52.622Z,4.83
2023-04-23T09:50:32.753Z,3.57
2023-04-23T09:52:59.409Z,3.07
2023-04-23T09:55:36.458Z,5.40
2023-04-23T09:58:14.783Z,6.90
2023-04-23T10:00:42.010Z,3.30
2023-04-23T10:03:10.171Z,6.23
2023-04-23T10:05:59.743Z,3.00
2023-04-23T10:08:28.069Z,2.97
2023-04-23T10:10:59.951Z,2.80
2023-04-23T10:13:29.551Z,6.13
2023-04-23T10:15:59.076Z,3.27
2023-04-23T10:18:32.928Z,5.33
2023-04-23T10:21:02.576Z,6.47
2023-04-23T10:23:30.391Z,4.17
2023-04-23T10:26:00.228Z,3.23
2023-04-23T10:28:31.131Z,2.37
2023-04-23T10:30:59.820Z,2.23
2023-04-23T10:33:30.849Z,3.03
2023-04-23T10:35:59.006Z,3.77
2023-04-23T10:38:27.667Z,1.70
2023-04-23T10:40:57.895Z,5.33
2023-04-23T10:43:24.865Z,2.60
2023-04-23T10:45:51.288Z,2.10
2023-04-23T10:48:17.416Z,4.23
2023-04-23T10:51:00.307Z,2.13
2023-04-23T10:53:33.913Z,2.10
2023-04-23T10:56:10.107Z,2.30
2023-04-23T10:58:50.966Z,1.83
2023-04-23T11:01:18.374Z,2.77
2023-04-23T11:03:45.450Z,2.10
2023-04-23T11:06:48.056Z,2.33
2023-04-23T11:09:47.143Z,1.67
2023-04-23T11:12:20.091Z,2.40
2023-04-23T11:14:47.125Z,3.73
2023-04-23T11:17:16.474Z,2.67
2023-04-23T11:20:03.727Z,3.27
2023-04-23T11:22:36.044Z,2.10
2023-04-23T11:25:04.571Z,3.57
2023-04-23T11:27:31.594Z,2.03
2023-04-23T11:29:59.906Z,1.70
2023-04-23T11:32:27.982Z,1.97
2023-04-23T11:34:57.187Z,1.87
2023-04-23T11:37:25.082Z,3.23
2023-04-23T11:39:51.478Z,1.60
2023-04-23T11:42:19.416Z,2.43
2023-04-23T11:44:47.042Z,2.10
2023-04-23T11:47:18.562Z,1.90
2023-04-23T11:49:45.482Z,3.63
2023-04-23T11:52:13.986Z,2.47
2023-04-23T11:54:41.388Z,2.10
2023-04-23T11:57:11.168Z,2.10
2023-04-23T11:59:38.023Z,3.67
2023-04-23T12:02:04.581Z,2.20
2023-04-23T12:04:33.628Z,1.33
2023-04-23T12:07:00.572Z,1.80
2023-04-23T12:09:28.884Z,1.53
2023-04-23T12:11:57.546Z,1.63
2023-04-23T12:14:29.910Z,2.07
2023-04-23T12:16:58.058Z,2.60
2023-04-23T12:19:30.934Z,2.37
2023-04-23T12:22:00.913Z,4.63
2023-04-23T12:24:30.334Z,2.20
2023-04-23T12:27:01.958Z,1.57
2023-04-23T12:29:30.848Z,1.53
2023-04-23T12:32:00.220Z,1.00
2023-04-23T12:34:26.627Z,1.77
2023-04-23T12:36:55.899Z,2.40
2023-04-23T12:39:31.050Z,3.37
2023-04-23T12:42:07.658Z,1.73
2023-04-23T12:44:36.842Z,2.93
2023-04-23T12:47:07.011Z,1.13
2023-04-23T12:49:36.339Z,1.50
2023-04-23T12:52:04.746Z,1.50
2023-04-23T12:54:39.478Z,4.33
2023-04-23T12:57:10.254Z,2.20
2023-04-23T12:59:36.587Z,1.47
2023-04-23T13:02:03.987Z,2.30
2023-04-23T13:04:32.471Z,1.27
2023-04-23T13:06:58.817Z,1.58
2023-04-23T13:09:27.167Z,1.50
2023-04-23T13:11:54.274Z,2.77
2023-04-23T13:14:20.873Z,1.17
2023-04-23T13:16:48.163Z,2.27
2023-04-23T13:19:16.369Z,2.90
2023-04-23T13:21:42.656Z,1.47
2023-04-23T13:24:09.015Z,2.97
2023-04-23T13:26:36.689Z,3.87
2023-04-23T13:29:03.365Z,2.30
2023-04-23T13:31:30.574Z,1.83
2023-04-23T13:33:57.192Z,1.77
2023-04-23T13:36:24.802Z,3.67
2023-04-23T13:38:51.477Z,1.70
2023-04-23T13:41:17.714Z,2.07
2023-04-23T13:43:44.122Z,2.37
2023-04-23T13:46:10.540Z,2.37
2023-04-23T13:48:36.906Z,3.43
2023-04-23T13:51:04.083Z,3.13
2023-04-23T13:53:31.471Z,1.73
2023-04-23T13:56:00.183Z,2.23
2023-04-23T13:58:26.643Z,1.70
2023-04-23T14:00:52.877Z,4.30
2023-04-23T14:03:19.738Z,2.40
2023-04-23T14:05:45.981Z,3.20
2023-04-23T14:08:12.462Z,2.40
2023-04-23T14:10:40.659Z,2.30
2023-04-23T14:13:08.954Z,1.80
2023-04-23T14:15:35.464Z,2.70
2023-04-23T14:18:01.852Z,3.57
2023-04-23T14:20:28.438Z,2.30
2023-04-23T14:23:02.387Z,3.23
2023-04-23T14:25:41.234Z,3.33
2023-04-23T14:28:34.391Z,2.10
2023-04-23T14:31:01.971Z,3.80
2023-04-23T14:33:28.206Z,1.97
2023-04-23T14:35:54.522Z,2.67
2023-04-23T14:38:20.856Z,1.80
2023-04-23T14:40:47.384Z,4.47
2023-04-23T14:43:15.913Z,2.30
2023-04-23T14:45:43.079Z,2.43
2023-04-23T14:48:10.051Z,1.73
2023-04-23T14:50:36.274Z,1.83
2023-04-23T14:53:07.042Z,2.77
2023-04-23T14:55:34.084Z,2.60
2023-04-23T14:58:00.813Z,1.50
2023-04-23T15:00:27.889Z,1.87
2023-04-23T15:02:54.496Z,1.63
2023-04-23T15:05:20.864Z,1.80
2023-04-23T15:07:47.098Z,1.20
2023-04-23T15:10:13.709Z,1.30
2023-04-23T15:12:39.784Z,1.73
2023-04-23T15:15:27.703Z,1.43
2023-04-23T15:18:00.179Z,2.03
2023-04-23T15:20:26.509Z,2.07
2023-04-23T15:22:52.940Z,1.50
2023-04-23T15:25:19.242Z,2.40
2023-04-23T15:27:45.724Z,3.00
2023-04-23T15:30:12.448Z,1.30
2023-04-23T15:32:38.661Z,1.80
2023-04-23T15:35:05.343Z,1.50
2023-04-23T15:37:31.604Z,2.43
2023-04-23T15:39:57.810Z,1.60
2023-04-23T15:42:24.976Z,2.77
2023-04-23T15:44:55.573Z,1.73
2023-04-23T15:47:22.778Z,2.33
2023-04-23T15:49:49.604Z,2.07
2023-04-23T15:52:20.145Z,1.80
2023-04-23T15:54:46.668Z,1.83
2023-04-23T15:57:12.907Z,1.40
2023-04-23T15:59:39.551Z,2.47
2023-04-23T16:02:06.461Z,4.27
2023-04-23T16:04:33.100Z,2.27
2023-04-23T16:06:59.568Z,1.57
2023-04-23T16:09:25.980Z,1.33
2023-04-23T16:11:55.631Z,1.30
2023-04-23T16:14:22.276Z,2.23
2023-04-23T16:16:48.888Z,1.97
2023-04-23T16:19:15.133Z,1.20
2023-04-23T16:21:41.284Z,1.53
2023-04-23T16:24:07.838Z,1.40
2023-04-23T16:26:34.464Z,1.23
2023-04-23T16:31:29.981Z,3.17
2023-04-23T16:33:56.471Z,1.93
2023-04-23T16:36:23.209Z,1.20
2023-04-23T16:38:49.669Z,3.13
2023-04-23T16:41:18.625Z,3.30
2023-04-23T16:43:49.289Z,2.20
2023-04-23T16:46:15.545Z,1.30
2023-04-23T16:48:43.889Z,1.60
2023-04-23T16:51:10.612Z,1.47
2023-04-23T16:53:37.391Z,1.40
2023-04-23T16:56:04.491Z,1.63
2023-04-23T16:58:31.385Z,6.10
2023-04-23T17:00:57.650Z,2.20
2023-04-23T17:03:23.987Z,5.43
2023-04-23T17:06:06.750Z,2.97
2023-04-23T17:08:32.978Z,1.93
2023-04-23T17:10:59.353Z,2.43
2023-04-23T17:13:25.861Z,1.50
2023-04-23T17:15:52.105Z,2.20
2023-04-23T17:18:18.640Z,1.23
2023-04-23T17:20:45.051Z,1.67
2023-04-23T17:23:11.316Z,1.97
2023-04-23T17:25:37.784Z,2.77
2023-04-23T17:28:04.003Z,1.43
2023-04-23T17:30:30.207Z,2.33
2023-04-23T17:32:56.442Z,3.23
2023-04-23T17:35:22.732Z,1.70
2023-04-23T17:37:48.924Z,1.73
2023-04-23T17:40:15.364Z,1.37
2023-04-23T17:42:41.944Z,1.57
2023-04-23T17:45:09.553Z,2.50
2023-04-23T17:47:36.112Z,1.50
2023-04-23T17:50:03.765Z,1.60
2023-04-23T17:52:30.937Z,2.23
2023-04-23T17:54:57.123Z,1.40
2023-04-23T17:57:23.411Z,1.90
2023-04-23T17:59:49.820Z,1.70
2023-04-23T18:02:16.436Z,1.70
2023-04-23T18:04:42.859Z,1.73
2023-04-23T18:07:09.268Z,1.80
2023-04-23T18:09:35.595Z,4.93
2023-04-23T18:12:03.200Z,3.80
2023-04-23T18:14:29.669Z,5.13
2023-04-23T18:16:56.027Z,1.67
2023-04-23T18:19:22.477Z,1.60
2023-04-23T18:21:49.457Z,1.93
2023-04-23T18:24:17.923Z,2.07
2023-04-23T18:26:44.413Z,1.60
2023-04-23T18:29:10.807Z,2.30
2023-04-23T18:31:37.331Z,2.30
2023-04-23T18:34:09.591Z,1.57
2023-04-23T18:36:43.714Z,1.83
2023-04-23T18:39:10.295Z,2.17
2023-04-23T18:41:36.717Z,1.80
2023-04-23T18:44:02.902Z,1.60
2023-04-23T18:46:31.226Z,1.33
2023-04-23T18:49:08.026Z,2.30
2023-04-23T18:51:43.630Z,1.60
2023-04-23T18:54:14.263Z,1.73
2023-04-23T18:56:40.982Z,1.77
2023-04-23T18:59:07.144Z,3.70
2023-04-23T19:01:33.528Z,1.43
2023-04-23T19:04:00.251Z,1.63
2023-04-23T19:06:27.462Z,1.60
2023-04-23T19:08:53.748Z,1.70
2023-04-23T19:11:20.526Z,1.03
2023-04-23T19:13:46.897Z,1.20
2023-04-23T19:16:15.733Z,1.50
2023-04-23T19:18:42.577Z,1.33
2023-04-23T19:21:08.795Z,1.87
2023-04-23T19:23:35.493Z,1.50
2023-04-23T19:26:03.393Z,2.17
2023-04-23T19:28:30.029Z,2.43
2023-04-23T19:30:56.921Z,1.50
2023-04-23T19:33:23.835Z,1.50
2023-04-23T19:35:50.097Z,1.90
2023-04-23T19:38:16.379Z,6.73
2023-04-23T19:40:42.707Z,1.40
2023-04-23T19:43:09.836Z,6.33
2023-04-23T19:45:37.972Z,1.40
2023-04-23T19:48:04.797Z,1.20
2023-04-23T19:50:31.196Z,2.80
2023-04-23T19:52:57.505Z,1.10
2023-04-23T19:55:26.491Z,2.67
2023-04-23T19:57:54.555Z,2.80
2023-04-23T20:00:23.160Z,1.53
2023-04-23T20:02:51.264Z,1.93
2023-04-23T20:05:18.873Z,1.67
2023-04-23T20:07:48.333Z,2.90
2023-04-23T20:10:16.287Z,1.40
2023-04-23T20:12:44.008Z,1.70
2023-04-23T20:15:11.720Z,1.43
2023-04-23T20:17:38.373Z,1.60
2023-04-23T20:20:05.973Z,3.20
2023-04-23T20:22:35.863Z,1.60
2023-04-23T20:25:02.691Z,1.60
2023-04-23T20:27:29.642Z,3.23
2023-04-23T20:29:55.986Z,1.50
2023-04-23T20:32:22.483Z,1.80
2023-04-23T20:34:48.740Z,2.10
2023-04-23T20:37:14.972Z,1.77
2023-04-23T20:39:42.250Z,3.60
2023-04-23T20:42:08.793Z,1.50
2023-04-23T20:44:35.744Z,2.90
2023-04-23T20:47:07.815Z,2.23
2023-04-23T20:49:34.128Z,2.60
2023-04-23T20:52:00.282Z,1.50
2023-04-23T20:54:26.719Z,1.70
2023-04-23T20:56:53.393Z,1.90
2023-04-23T20:59:22.619Z,1.33
2023-04-23T21:01:49.244Z,3.03
2023-04-23T21:04:16.051Z,2.10
2023-04-23T21:06:43.671Z,1.60
2023-04-23T21:09:10.471Z,1.60
2023-04-23T21:11:37.001Z,1.47
2023-04-23T21:14:07.748Z,1.50
2023-04-23T21:16:37.287Z,2.33
2023-04-23T21:19:04.564Z,1.73
2023-04-23T21:21:31.740Z,1.70
2023-04-23T21:24:01.402Z,1.70
2023-04-23T21:26:30.675Z,1.50
2023-04-23T21:28:56.953Z,1.50
2023-04-23T21:31:46.945Z,1.50
2023-04-23T21:34:16.733Z,1.63
2023-04-23T21:36:46.001Z,1.70
2023-04-23T21:39:13.299Z,1.53
2023-04-23T21:41:40.147Z,1.50
2023-04-23T21:44:07.958Z,1.40
2023-04-23T21:46:34.112Z,1.40
2023-04-23T21:49:01.157Z,1.50
2023-04-23T21:51:27.622Z,1.20
2023-04-23T21:53:53.997Z,1.50
2023-04-23T21:56:20.766Z,1.30
2023-04-23T21:58:46.958Z,1.60
2023-04-23T22:01:13.506Z,1.10
2023-04-23T22:03:45.566Z,1.07
2023-04-23T22:06:12.303Z,1.30
2023-04-23T22:08:39.590Z,2.40
2023-04-23T22:11:07.277Z,1.40
2023-04-23T22:13:35.058Z,1.37
2023-04-23T22:16:02.982Z,1.30
2023-04-23T22:18:31.775Z,1.10
2023-04-23T22:20:58.174Z,1.30
2023-04-23T22:23:24.333Z,1.10
2023-04-23T22:25:50.532Z,1.20
2023-04-23T22:28:16.781Z,1.10
2023-04-23T22:30:43.124Z,1.40
2023-04-23T22:33:09.275Z,2.40
2023-04-23T22:35:35.665Z,1.10
2023-04-23T22:38:01.877Z,1.23
2023-04-23T22:40:28.253Z,0.87
2023-04-23T22:42:54.666Z,1.10
2023-04-23T22:45:20.883Z,1.20
2023-04-23T22:47:47.354Z,1.10
2023-04-23T22:50:13.537Z,1.40
2023-04-23T22:52:39.888Z,1.30
2023-04-23T22:55:07.673Z,1.00
2023-04-23T22:57:34.530Z,1.23
2023-04-23T23:00:00.771Z,1.40
2023-04-23T23:02:27.283Z,1.43
2023-04-23T23:04:53.965Z,1.00
2023-04-23T23:07:20.472Z,2.13
2023-04-23T23:09:47.031Z,1.20
2023-04-23T23:12:13.180Z,1.20
2023-04-23T23:14:39.344Z,1.20
2023-04-23T23:17:05.928Z,1.10
2023-04-23T23:19:32.191Z,1.20
2023-04-23T23:21:58.725Z,1.20
2023-04-23T23:24:24.862Z,1.77
2023-04-23T23:26:51.084Z,1.47
2023-04-23T23:29:17.319Z,1.10
2023-04-23T23:31:43.575Z,1.00
2023-04-23T23:34:10.309Z,1.10
2023-04-23T23:36:36.430Z,1.27
2023-04-23T23:39:03.744Z,1.30
2023-04-23T23:41:29.903Z,1.37
2023-04-23T23:43:56.034Z,1.10
2023-04-23T23:46:22.358Z,1.53
2023-04-23T23:48:48.664Z,1.20
2023-04-23T23:51:15.674Z,1.30
2023-04-23T23:53:41.886Z,1.30
2023-04-23T23:56:08.084Z,1.60
2023-04-23T23:58:34.484Z,1.77
